sensor_id;sensor_type;location;lat;lon;timestamp;P1;durP1;ratioP1;P2;durP2;ratioP2
19036;SDS011;9651;49.138;8.900;2022-10-26T00:01:38;6.70;;;3.10;;
19036;SDS011;9651;49.138;8.900;2022-10-26T00:05:41;7.23;;;2.80;;
19036;SDS011;9651;49.138;8.900;2022-10-26T00:09:44;4.73;;;2.70;;
19036;SDS011;9651;49.138;8.900;2022-10-26T00:13:46;7.33;;;3.10;;
19036;SDS011;9651;49.138;8.900;2022-10-26T00:17:49;6.07;;;2.53;;
19036;SDS011;9651;49.138;8.900;2022-10-26T00:21:52;6.53;;;2.73;;
19036;SDS011;9651;49.138;8.900;2022-10-26T00:25:55;7.57;;;2.50;;
19036;SDS011;9651;49.138;8.900;2022-10-26T00:29:57;5.73;;;2.63;;
19036;SDS011;9651;49.138;8.900;2022-10-26T00:33:59;5.33;;;3.20;;
19036;SDS011;9651;49.138;8.900;2022-10-26T00:38:02;5.30;;;3.33;;
19036;SDS011;9651;49.138;8.900;2022-10-26T00:42:04;7.73;;;3.50;;
19036;SDS011;9651;49.138;8.900;2022-10-26T00:46:07;7.03;;;3.37;;
19036;SDS011;9651;49.138;8.900;2022-10-26T00:50:14;7.90;;;3.40;;
19036;SDS011;9651;49.138;8.900;2022-10-26T00:54:20;4.50;;;3.10;;
19036;SDS011;9651;49.138;8.900;2022-10-26T00:58:22;4.30;;;3.00;;
19036;SDS011;9651;49.138;8.900;2022-10-26T01:02:26;5.17;;;3.27;;
19036;SDS011;9651;49.138;8.900;2022-10-26T01:06:29;7.50;;;3.30;;
19036;SDS011;9651;49.138;8.900;2022-10-26T01:10:33;7.47;;;4.00;;
19036;SDS011;9651;49.138;8.900;2022-10-26T01:14:36;8.83;;;3.30;;
19036;SDS011;9651;49.138;8.900;2022-10-26T01:18:39;7.50;;;3.43;;
19036;SDS011;9651;49.138;8.900;2022-10-26T01:22:48;9.77;;;3.17;;
19036;SDS011;9651;49.138;8.900;2022-10-26T01:27:01;4.97;;;3.10;;
19036;SDS011;9651;49.138;8.900;2022-10-26T01:31:19;5.97;;;2.80;;
19036;SDS011;9651;49.138;8.900;2022-10-26T01:35:28;4.17;;;2.60;;
19036;SDS011;9651;49.138;8.900;2022-10-26T01:39:34;6.17;;;3.47;;
19036;SDS011;9651;49.138;8.900;2022-10-26T01:43:41;4.77;;;2.50;;
19036;SDS011;9651;49.138;8.900;2022-10-26T01:47:47;4.43;;;3.20;;
19036;SDS011;9651;49.138;8.900;2022-10-26T01:51:50;4.53;;;2.77;;
19036;SDS011;9651;49.138;8.900;2022-10-26T01:55:52;7.47;;;3.10;;
19036;SDS011;9651;49.138;8.900;2022-10-26T01:59:57;9.10;;;3.33;;
19036;SDS011;9651;49.138;8.900;2022-10-26T02:04:08;6.93;;;3.10;;
19036;SDS011;9651;49.138;8.900;2022-10-26T02:08:26;5.13;;;3.00;;
19036;SDS011;9651;49.138;8.900;2022-10-26T02:12:50;3.23;;;2.90;;
19036;SDS011;9651;49.138;8.900;2022-10-26T02:17:01;7.37;;;3.33;;
19036;SDS011;9651;49.138;8.900;2022-10-26T02:21:09;7.70;;;2.83;;
19036;SDS011;9651;49.138;8.900;2022-10-26T02:25:16;6.40;;;3.03;;
19036;SDS011;9651;49.138;8.900;2022-10-26T02:29:22;4.77;;;2.80;;
19036;SDS011;9651;49.138;8.900;2022-10-26T02:33:26;9.67;;;3.23;;
19036;SDS011;9651;49.138;8.900;2022-10-26T02:37:33;7.57;;;3.37;;
19036;SDS011;9651;49.138;8.900;2022-10-26T02:41:36;7.57;;;3.60;;
19036;SDS011;9651;49.138;8.900;2022-10-26T02:45:41;12.33;;;3.10;;
19036;SDS011;9651;49.138;8.900;2022-10-26T02:49:46;6.23;;;3.10;;
19036;SDS011;9651;49.138;8.900;2022-10-26T02:53:50;9.97;;;3.07;;
19036;SDS011;9651;49.138;8.900;2022-10-26T02:57:58;5.30;;;2.90;;
19036;SDS011;9651;49.138;8.900;2022-10-26T03:02:03;4.70;;;2.97;;
19036;SDS011;9651;49.138;8.900;2022-10-26T03:06:05;7.60;;;3.53;;
19036;SDS011;9651;49.138;8.900;2022-10-26T03:10:09;11.20;;;3.20;;
19036;SDS011;9651;49.138;8.900;2022-10-26T03:14:11;12.40;;;3.60;;
19036;SDS011;9651;49.138;8.900;2022-10-26T03:18:13;7.30;;;3.30;;
19036;SDS011;9651;49.138;8.900;2022-10-26T03:22:15;3.20;;;2.80;;
19036;SDS011;9651;49.138;8.900;2022-10-26T03:26:18;7.47;;;3.20;;
19036;SDS011;9651;49.138;8.900;2022-10-26T03:30:20;7.07;;;3.60;;
19036;SDS011;9651;49.138;8.900;2022-10-26T03:34:22;9.53;;;3.57;;
19036;SDS011;9651;49.138;8.900;2022-10-26T03:38:23;8.30;;;3.47;;
19036;SDS011;9651;49.138;8.900;2022-10-26T03:42:27;7.23;;;3.17;;
19036;SDS011;9651;49.138;8.900;2022-10-26T03:46:28;19.93;;;3.90;;
19036;SDS011;9651;49.138;8.900;2022-10-26T03:50:30;6.43;;;2.70;;
19036;SDS011;9651;49.138;8.900;2022-10-26T03:54:32;5.77;;;3.20;;
19036;SDS011;9651;49.138;8.900;2022-10-26T03:58:35;7.87;;;3.20;;
19036;SDS011;9651;49.138;8.900;2022-10-26T04:02:40;8.17;;;4.10;;
19036;SDS011;9651;49.138;8.900;2022-10-26T04:06:42;5.53;;;3.90;;
19036;SDS011;9651;49.138;8.900;2022-10-26T04:10:44;9.20;;;3.80;;
19036;SDS011;9651;49.138;8.900;2022-10-26T04:14:47;5.20;;;3.00;;
19036;SDS011;9651;49.138;8.900;2022-10-26T04:18:49;12.00;;;3.90;;
19036;SDS011;9651;49.138;8.900;2022-10-26T04:22:57;5.13;;;3.43;;
19036;SDS011;9651;49.138;8.900;2022-10-26T04:27:00;4.97;;;3.57;;
19036;SDS011;9651;49.138;8.900;2022-10-26T04:31:03;7.43;;;3.40;;
19036;SDS011;9651;49.138;8.900;2022-10-26T04:35:05;5.03;;;2.70;;
19036;SDS011;9651;49.138;8.900;2022-10-26T04:39:08;4.97;;;3.20;;
19036;SDS011;9651;49.138;8.900;2022-10-26T04:43:09;7.40;;;3.33;;
19036;SDS011;9651;49.138;8.900;2022-10-26T04:47:13;4.80;;;3.63;;
19036;SDS011;9651;49.138;8.900;2022-10-26T04:51:14;7.03;;;3.03;;
19036;SDS011;9651;49.138;8.900;2022-10-26T04:55:17;5.60;;;2.90;;
19036;SDS011;9651;49.138;8.900;2022-10-26T04:59:18;5.03;;;3.33;;
19036;SDS011;9651;49.138;8.900;2022-10-26T05:03:22;7.03;;;3.37;;
19036;SDS011;9651;49.138;8.900;2022-10-26T05:07:24;6.80;;;3.80;;
19036;SDS011;9651;49.138;8.900;2022-10-26T05:11:25;9.27;;;3.80;;
19036;SDS011;9651;49.138;8.900;2022-10-26T05:15:27;6.83;;;3.30;;
19036;SDS011;9651;49.138;8.900;2022-10-26T05:19:31;3.87;;;3.13;;
19036;SDS011;9651;49.138;8.900;2022-10-26T05:23:32;5.03;;;3.20;;
19036;SDS011;9651;49.138;8.900;2022-10-26T05:27:34;5.97;;;2.70;;
19036;SDS011;9651;49.138;8.900;2022-10-26T05:31:36;8.93;;;4.23;;
19036;SDS011;9651;49.138;8.900;2022-10-26T05:35:39;9.70;;;4.47;;
19036;SDS011;9651;49.138;8.900;2022-10-26T05:39:41;7.53;;;4.20;;
19036;SDS011;9651;49.138;8.900;2022-10-26T05:43:45;5.63;;;3.67;;
19036;SDS011;9651;49.138;8.900;2022-10-26T05:47:47;6.83;;;4.03;;
19036;SDS011;9651;49.138;8.900;2022-10-26T05:51:51;9.30;;;3.93;;
19036;SDS011;9651;49.138;8.900;2022-10-26T05:55:53;7.00;;;4.23;;
19036;SDS011;9651;49.138;8.900;2022-10-26T05:59:55;4.73;;;3.60;;
19036;SDS011;9651;49.138;8.900;2022-10-26T06:04:01;5.23;;;3.90;;
19036;SDS011;9651;49.138;8.900;2022-10-26T06:08:12;4.53;;;3.40;;
19036;SDS011;9651;49.138;8.900;2022-10-26T06:12:14;6.50;;;3.67;;
19036;SDS011;9651;49.138;8.900;2022-10-26T06:16:20;5.23;;;3.80;;
19036;SDS011;9651;49.138;8.900;2022-10-26T06:20:32;7.40;;;3.80;;
19036;SDS011;9651;49.138;8.900;2022-10-26T06:24:45;5.03;;;3.50;;
19036;SDS011;9651;49.138;8.900;2022-10-26T06:28:54;10.67;;;3.70;;
19036;SDS011;9651;49.138;8.900;2022-10-26T06:33:03;8.43;;;4.30;;
19036;SDS011;9651;49.138;8.900;2022-10-26T06:37:05;5.80;;;4.10;;
19036;SDS011;9651;49.138;8.900;2022-10-26T06:41:09;6.53;;;3.60;;
19036;SDS011;9651;49.138;8.900;2022-10-26T06:45:15;6.13;;;5.17;;
19036;SDS011;9651;49.138;8.900;2022-10-26T06:49:18;5.93;;;4.50;;
19036;SDS011;9651;49.138;8.900;2022-10-26T06:53:28;9.23;;;4.90;;
19036;SDS011;9651;49.138;8.900;2022-10-26T06:57:35;6.40;;;4.40;;
19036;SDS011;9651;49.138;8.900;2022-10-26T07:01:38;6.43;;;4.00;;
19036;SDS011;9651;49.138;8.900;2022-10-26T07:05:39;13.33;;;4.67;;
19036;SDS011;9651;49.138;8.900;2022-10-26T07:09:42;10.70;;;3.57;;
19036;SDS011;9651;49.138;8.900;2022-10-26T07:13:45;6.13;;;3.27;;
19036;SDS011;9651;49.138;8.900;2022-10-26T07:17:49;6.73;;;3.70;;
19036;SDS011;9651;49.138;8.900;2022-10-26T07:21:52;12.90;;;3.73;;
19036;SDS011;9651;49.138;8.900;2022-10-26T07:25:57;14.13;;;3.60;;
19036;SDS011;9651;49.138;8.900;2022-10-26T07:30:01;15.80;;;3.67;;
19036;SDS011;9651;49.138;8.900;2022-10-26T07:34:03;15.33;;;4.93;;
19036;SDS011;9651;49.138;8.900;2022-10-26T07:38:06;18.90;;;4.07;;
19036;SDS011;9651;49.138;8.900;2022-10-26T07:42:13;10.23;;;3.93;;
19036;SDS011;9651;49.138;8.900;2022-10-26T07:46:17;18.73;;;5.33;;
19036;SDS011;9651;49.138;8.900;2022-10-26T07:50:19;17.57;;;4.07;;
19036;SDS011;9651;49.138;8.900;2022-10-26T07:54:21;10.00;;;3.93;;
19036;SDS011;9651;49.138;8.900;2022-10-26T07:58:23;10.97;;;3.80;;
19036;SDS011;9651;49.138;8.900;2022-10-26T08:02:27;8.13;;;3.63;;
19036;SDS011;9651;49.138;8.900;2022-10-26T08:06:29;10.00;;;3.90;;
19036;SDS011;9651;49.138;8.900;2022-10-26T08:10:31;7.47;;;3.23;;
19036;SDS011;9651;49.138;8.900;2022-10-26T08:14:33;8.60;;;3.23;;
19036;SDS011;9651;49.138;8.900;2022-10-26T08:18:36;10.83;;;3.83;;
19036;SDS011;9651;49.138;8.900;2022-10-26T08:22:38;9.23;;;3.37;;
19036;SDS011;9651;49.138;8.900;2022-10-26T08:26:40;10.33;;;3.30;;
19036;SDS011;9651;49.138;8.900;2022-10-26T08:30:42;4.87;;;3.27;;
19036;SDS011;9651;49.138;8.900;2022-10-26T08:34:46;8.87;;;3.53;;
19036;SDS011;9651;49.138;8.900;2022-10-26T08:38:47;5.10;;;2.93;;
19036;SDS011;9651;49.138;8.900;2022-10-26T08:42:50;5.87;;;3.07;;
19036;SDS011;9651;49.138;8.900;2022-10-26T08:46:58;4.97;;;2.70;;
19036;SDS011;9651;49.138;8.900;2022-10-26T08:51:07;6.90;;;3.20;;
19036;SDS011;9651;49.138;8.900;2022-10-26T08:55:13;6.30;;;2.93;;
19036;SDS011;9651;49.138;8.900;2022-10-26T08:59:20;5.83;;;2.80;;
19036;SDS011;9651;49.138;8.900;2022-10-26T09:03:29;10.57;;;3.73;;
19036;SDS011;9651;49.138;8.900;2022-10-26T09:07:39;10.30;;;4.30;;
19036;SDS011;9651;49.138;8.900;2022-10-26T09:11:51;9.73;;;3.87;;
19036;SDS011;9651;49.138;8.900;2022-10-26T09:16:04;13.57;;;3.60;;
19036;SDS011;9651;49.138;8.900;2022-10-26T09:20:33;11.17;;;3.50;;
19036;SDS011;9651;49.138;8.900;2022-10-26T09:24:48;17.80;;;3.97;;
19036;SDS011;9651;49.138;8.900;2022-10-26T09:28:53;11.77;;;3.10;;
19036;SDS011;9651;49.138;8.900;2022-10-26T09:32:57;6.67;;;3.33;;
19036;SDS011;9651;49.138;8.900;2022-10-26T09:37:04;4.88;;;3.03;;
19036;SDS011;9651;49.138;8.900;2022-10-26T09:41:19;6.88;;;2.80;;
19036;SDS011;9651;49.138;8.900;2022-10-26T09:45:24;7.10;;;2.50;;
19036;SDS011;9651;49.138;8.900;2022-10-26T09:49:32;5.47;;;2.83;;
19036;SDS011;9651;49.138;8.900;2022-10-26T09:53:40;20.42;;;3.30;;
19036;SDS011;9651;49.138;8.900;2022-10-26T09:57:44;3.90;;;2.40;;
19036;SDS011;9651;49.138;8.900;2022-10-26T10:01:48;7.25;;;2.00;;
19036;SDS011;9651;49.138;8.900;2022-10-26T10:05:50;7.25;;;2.45;;
19036;SDS011;9651;49.138;8.900;2022-10-26T10:10:05;6.28;;;2.15;;
19036;SDS011;9651;49.138;8.900;2022-10-26T10:14:12;5.28;;;2.28;;
19036;SDS011;9651;49.138;8.900;2022-10-26T10:18:17;5.05;;;2.17;;
19036;SDS011;9651;49.138;8.900;2022-10-26T10:22:23;8.57;;;2.97;;
19036;SDS011;9651;49.138;8.900;2022-10-26T10:26:26;8.77;;;2.20;;
19036;SDS011;9651;49.138;8.900;2022-10-26T10:30:31;4.78;;;1.90;;
19036;SDS011;9651;49.138;8.900;2022-10-26T10:34:34;3.97;;;1.63;;
19036;SDS011;9651;49.138;8.900;2022-10-26T10:38:36;4.35;;;1.58;;
19036;SDS011;9651;49.138;8.900;2022-10-26T10:42:42;6.97;;;2.22;;
19036;SDS011;9651;49.138;8.900;2022-10-26T10:46:46;3.50;;;1.67;;
19036;SDS011;9651;49.138;8.900;2022-10-26T10:50:50;4.55;;;2.28;;
19036;SDS011;9651;49.138;8.900;2022-10-26T10:54:56;3.92;;;1.92;;
19036;SDS011;9651;49.138;8.900;2022-10-26T10:59:26;7.97;;;1.65;;
19036;SDS011;9651;49.138;8.900;2022-10-26T11:03:54;6.00;;;2.17;;
19036;SDS011;9651;49.138;8.900;2022-10-26T11:08:07;4.68;;;1.85;;
19036;SDS011;9651;49.138;8.900;2022-10-26T11:12:14;9.50;;;1.90;;
19036;SDS011;9651;49.138;8.900;2022-10-26T11:16:22;4.10;;;1.90;;
19036;SDS011;9651;49.138;8.900;2022-10-26T11:20:29;5.85;;;1.75;;
19036;SDS011;9651;49.138;8.900;2022-10-26T11:24:35;5.88;;;2.17;;
19036;SDS011;9651;49.138;8.900;2022-10-26T11:28:44;7.40;;;2.10;;
19036;SDS011;9651;49.138;8.900;2022-10-26T11:32:49;4.72;;;2.10;;
19036;SDS011;9651;49.138;8.900;2022-10-26T11:36:57;6.63;;;2.42;;
19036;SDS011;9651;49.138;8.900;2022-10-26T11:41:06;4.53;;;1.95;;
19036;SDS011;9651;49.138;8.900;2022-10-26T11:45:16;5.15;;;1.65;;
19036;SDS011;9651;49.138;8.900;2022-10-26T11:49:25;5.57;;;2.00;;
19036;SDS011;9651;49.138;8.900;2022-10-26T11:53:35;2.85;;;1.58;;
19036;SDS011;9651;49.138;8.900;2022-10-26T11:57:39;3.90;;;1.98;;
19036;SDS011;9651;49.138;8.900;2022-10-26T12:01:42;6.47;;;1.95;;
19036;SDS011;9651;49.138;8.900;2022-10-26T12:05:45;7.85;;;1.98;;
19036;SDS011;9651;49.138;8.900;2022-10-26T12:09:52;6.43;;;1.92;;
19036;SDS011;9651;49.138;8.900;2022-10-26T12:13:57;6.65;;;1.98;;
19036;SDS011;9651;49.138;8.900;2022-10-26T12:18:04;7.57;;;2.00;;
19036;SDS011;9651;49.138;8.900;2022-10-26T12:22:13;7.00;;;1.88;;
19036;SDS011;9651;49.138;8.900;2022-10-26T12:26:38;6.00;;;1.80;;
19036;SDS011;9651;49.138;8.900;2022-10-26T12:30:40;3.50;;;1.65;;
19036;SDS011;9651;49.138;8.900;2022-10-26T12:35:00;3.92;;;1.80;;
19036;SDS011;9651;49.138;8.900;2022-10-26T12:39:15;3.20;;;2.20;;
19036;SDS011;9651;49.138;8.900;2022-10-26T12:43:33;4.28;;;1.70;;
19036;SDS011;9651;49.138;8.900;2022-10-26T12:52:37;5.00;;;1.98;;
19036;SDS011;9651;49.138;8.900;2022-10-26T12:56:44;5.60;;;1.58;;
19036;SDS011;9651;49.138;8.900;2022-10-26T13:01:09;3.30;;;1.60;;
19036;SDS011;9651;49.138;8.900;2022-10-26T13:05:36;5.90;;;2.03;;
19036;SDS011;9651;49.138;8.900;2022-10-26T13:09:59;5.07;;;1.77;;
19036;SDS011;9651;49.138;8.900;2022-10-26T13:14:05;5.00;;;1.98;;
19036;SDS011;9651;49.138;8.900;2022-10-26T13:18:13;5.88;;;2.28;;
19036;SDS011;9651;49.138;8.900;2022-10-26T13:22:18;6.03;;;1.70;;
19036;SDS011;9651;49.138;8.900;2022-10-26T13:26:22;5.38;;;2.60;;
19036;SDS011;9651;49.138;8.900;2022-10-26T13:34:47;6.65;;;3.08;;
19036;SDS011;9651;49.138;8.900;2022-10-26T13:38:50;5.10;;;1.80;;
19036;SDS011;9651;49.138;8.900;2022-10-26T13:42:53;4.75;;;1.75;;
19036;SDS011;9651;49.138;8.900;2022-10-26T13:46:58;5.22;;;1.70;;
19036;SDS011;9651;49.138;8.900;2022-10-26T13:51:15;6.60;;;1.70;;
19036;SDS011;9651;49.138;8.900;2022-10-26T13:55:22;5.32;;;1.83;;
19036;SDS011;9651;49.138;8.900;2022-10-26T13:59:26;3.58;;;1.67;;
19036;SDS011;9651;49.138;8.900;2022-10-26T14:03:31;4.22;;;1.30;;
19036;SDS011;9651;49.138;8.900;2022-10-26T14:07:34;4.47;;;1.73;;
19036;SDS011;9651;49.138;8.900;2022-10-26T14:11:42;3.78;;;1.60;;
19036;SDS011;9651;49.138;8.900;2022-10-26T14:15:48;3.33;;;1.70;;
19036;SDS011;9651;49.138;8.900;2022-10-26T14:19:50;3.80;;;1.80;;
19036;SDS011;9651;49.138;8.900;2022-10-26T14:23:55;4.57;;;1.75;;
19036;SDS011;9651;49.138;8.900;2022-10-26T14:27:58;5.10;;;2.42;;
19036;SDS011;9651;49.138;8.900;2022-10-26T14:32:18;3.10;;;1.25;;
19036;SDS011;9651;49.138;8.900;2022-10-26T14:36:21;4.70;;;1.77;;
19036;SDS011;9651;49.138;8.900;2022-10-26T14:40:28;6.68;;;1.50;;
19036;SDS011;9651;49.138;8.900;2022-10-26T14:44:34;4.60;;;1.33;;
19036;SDS011;9651;49.138;8.900;2022-10-26T14:48:37;3.05;;;1.70;;
19036;SDS011;9651;49.138;8.900;2022-10-26T14:52:50;5.15;;;1.67;;
19036;SDS011;9651;49.138;8.900;2022-10-26T14:56:56;5.60;;;1.92;;
19036;SDS011;9651;49.138;8.900;2022-10-26T15:01:14;3.65;;;1.65;;
19036;SDS011;9651;49.138;8.900;2022-10-26T15:05:28;6.82;;;2.25;;
19036;SDS011;9651;49.138;8.900;2022-10-26T15:09:40;5.18;;;1.75;;
19036;SDS011;9651;49.138;8.900;2022-10-26T15:13:45;4.43;;;1.80;;
19036;SDS011;9651;49.138;8.900;2022-10-26T15:17:48;4.95;;;1.60;;
19036;SDS011;9651;49.138;8.900;2022-10-26T15:21:52;4.07;;;1.60;;
19036;SDS011;9651;49.138;8.900;2022-10-26T15:25:55;3.42;;;1.65;;
19036;SDS011;9651;49.138;8.900;2022-10-26T15:30:12;5.32;;;1.95;;
19036;SDS011;9651;49.138;8.900;2022-10-26T15:34:21;5.72;;;1.63;;
19036;SDS011;9651;49.138;8.900;2022-10-26T15:38:23;3.45;;;1.80;;
19036;SDS011;9651;49.138;8.900;2022-10-26T15:42:25;3.28;;;1.58;;
19036;SDS011;9651;49.138;8.900;2022-10-26T15:46:29;5.75;;;1.58;;
19036;SDS011;9651;49.138;8.900;2022-10-26T15:50:32;4.93;;;1.88;;
19036;SDS011;9651;49.138;8.900;2022-10-26T15:54:34;8.43;;;1.33;;
19036;SDS011;9651;49.138;8.900;2022-10-26T15:58:36;2.97;;;1.60;;
19036;SDS011;9651;49.138;8.900;2022-10-26T16:02:39;3.00;;;1.65;;
19036;SDS011;9651;49.138;8.900;2022-10-26T16:06:43;2.72;;;1.60;;
19036;SDS011;9651;49.138;8.900;2022-10-26T16:10:45;4.68;;;2.70;;
19036;SDS011;9651;49.138;8.900;2022-10-26T16:14:47;3.33;;;1.45;;
19036;SDS011;9651;49.138;8.900;2022-10-26T16:18:52;3.63;;;1.40;;
19036;SDS011;9651;49.138;8.900;2022-10-26T16:22:55;5.50;;;2.28;;
19036;SDS011;9651;49.138;8.900;2022-10-26T16:27:00;10.63;;;2.87;;
19036;SDS011;9651;49.138;8.900;2022-10-26T16:31:02;15.97;;;5.70;;
19036;SDS011;9651;49.138;8.900;2022-10-26T16:35:07;7.20;;;2.80;;
19036;SDS011;9651;49.138;8.900;2022-10-26T16:39:10;6.70;;;2.53;;
19036;SDS011;9651;49.138;8.900;2022-10-26T16:43:12;7.43;;;2.75;;
19036;SDS011;9651;49.138;8.900;2022-10-26T16:47:14;6.68;;;2.42;;
19036;SDS011;9651;49.138;8.900;2022-10-26T16:51:18;6.35;;;2.58;;
19036;SDS011;9651;49.138;8.900;2022-10-26T16:55:21;10.17;;;3.33;;
19036;SDS011;9651;49.138;8.900;2022-10-26T16:59:23;8.93;;;3.17;;
19036;SDS011;9651;49.138;8.900;2022-10-26T17:03:25;3.20;;;2.03;;
19036;SDS011;9651;49.138;8.900;2022-10-26T17:07:28;9.80;;;2.27;;
19036;SDS011;9651;49.138;8.900;2022-10-26T17:11:30;5.30;;;2.30;;
19036;SDS011;9651;49.138;8.900;2022-10-26T17:15:32;6.27;;;2.10;;
19036;SDS011;9651;49.138;8.900;2022-10-26T17:19:34;7.50;;;2.10;;
19036;SDS011;9651;49.138;8.900;2022-10-26T17:23:38;5.93;;;2.03;;
19036;SDS011;9651;49.138;8.900;2022-10-26T17:27:40;7.43;;;2.00;;
19036;SDS011;9651;49.138;8.900;2022-10-26T17:31:42;9.00;;;2.40;;
19036;SDS011;9651;49.138;8.900;2022-10-26T17:35:43;9.53;;;2.10;;
19036;SDS011;9651;49.138;8.900;2022-10-26T17:39:47;11.10;;;2.43;;
19036;SDS011;9651;49.138;8.900;2022-10-26T17:43:49;6.60;;;2.37;;
19036;SDS011;9651;49.138;8.900;2022-10-26T17:47:51;5.83;;;2.37;;
19036;SDS011;9651;49.138;8.900;2022-10-26T17:51:53;8.40;;;2.87;;
19036;SDS011;9651;49.138;8.900;2022-10-26T17:56:05;7.27;;;3.10;;
19036;SDS011;9651;49.138;8.900;2022-10-26T18:00:09;10.80;;;6.53;;
19036;SDS011;9651;49.138;8.900;2022-10-26T18:04:14;12.43;;;7.07;;
19036;SDS011;9651;49.138;8.900;2022-10-26T18:08:16;13.27;;;6.17;;
19036;SDS011;9651;49.138;8.900;2022-10-26T18:12:19;16.43;;;7.13;;
19036;SDS011;9651;49.138;8.900;2022-10-26T18:16:21;13.00;;;5.93;;
19036;SDS011;9651;49.138;8.900;2022-10-26T18:20:24;16.30;;;7.00;;
19036;SDS011;9651;49.138;8.900;2022-10-26T18:24:26;10.93;;;4.30;;
19036;SDS011;9651;49.138;8.900;2022-10-26T18:28:29;7.57;;;3.73;;
19036;SDS011;9651;49.138;8.900;2022-10-26T18:32:32;12.53;;;4.90;;
19036;SDS011;9651;49.138;8.900;2022-10-26T18:36:34;7.40;;;3.80;;
19036;SDS011;9651;49.138;8.900;2022-10-26T18:40:36;7.73;;;3.47;;
19036;SDS011;9651;49.138;8.900;2022-10-26T18:44:39;10.17;;;5.50;;
19036;SDS011;9651;49.138;8.900;2022-10-26T18:48:41;5.47;;;2.80;;
19036;SDS011;9651;49.138;8.900;2022-10-26T18:52:43;4.87;;;2.63;;
19036;SDS011;9651;49.138;8.900;2022-10-26T18:56:45;6.77;;;3.20;;
19036;SDS011;9651;49.138;8.900;2022-10-26T19:00:48;4.93;;;3.67;;
19036;SDS011;9651;49.138;8.900;2022-10-26T19:04:51;9.13;;;4.33;;
19036;SDS011;9651;49.138;8.900;2022-10-26T19:08:53;9.57;;;4.60;;
19036;SDS011;9651;49.138;8.900;2022-10-26T19:12:55;8.03;;;4.70;;
19036;SDS011;9651;49.138;8.900;2022-10-26T19:16:59;8.70;;;4.50;;
19036;SDS011;9651;49.138;8.900;2022-10-26T19:21:02;9.63;;;4.50;;
19036;SDS011;9651;49.138;8.900;2022-10-26T19:25:06;11.37;;;5.17;;
19036;SDS011;9651;49.138;8.900;2022-10-26T19:29:10;8.77;;;5.13;;
19036;SDS011;9651;49.138;8.900;2022-10-26T19:33:15;11.87;;;5.37;;
19036;SDS011;9651;49.138;8.900;2022-10-26T19:37:17;8.50;;;4.83;;
19036;SDS011;9651;49.138;8.900;2022-10-26T19:41:19;13.10;;;5.47;;
19036;SDS011;9651;49.138;8.900;2022-10-26T19:45:22;8.67;;;4.70;;
19036;SDS011;9651;49.138;8.900;2022-10-26T19:49:25;9.43;;;4.50;;
19036;SDS011;9651;49.138;8.900;2022-10-26T19:53:27;10.77;;;4.93;;
19036;SDS011;9651;49.138;8.900;2022-10-26T19:57:29;8.03;;;3.70;;
19036;SDS011;9651;49.138;8.900;2022-10-26T20:01:34;5.07;;;3.17;;
19036;SDS011;9651;49.138;8.900;2022-10-26T20:05:39;5.10;;;3.47;;
19036;SDS011;9651;49.138;8.900;2022-10-26T20:09:41;7.00;;;3.30;;
19036;SDS011;9651;49.138;8.900;2022-10-26T20:13:44;6.60;;;2.83;;
19036;SDS011;9651;49.138;8.900;2022-10-26T20:17:47;5.40;;;3.37;;
19036;SDS011;9651;49.138;8.900;2022-10-26T20:21:50;7.90;;;3.50;;
19036;SDS011;9651;49.138;8.900;2022-10-26T20:25:52;8.63;;;3.10;;
19036;SDS011;9651;49.138;8.900;2022-10-26T20:29:54;9.47;;;3.63;;
19036;SDS011;9651;49.138;8.900;2022-10-26T20:33:56;7.43;;;2.80;;
19036;SDS011;9651;49.138;8.900;2022-10-26T20:38:00;8.63;;;3.30;;
19036;SDS011;9651;49.138;8.900;2022-10-26T20:42:02;9.37;;;3.27;;
19036;SDS011;9651;49.138;8.900;2022-10-26T20:46:06;3.40;;;2.67;;
19036;SDS011;9651;49.138;8.900;2022-10-26T20:50:10;4.27;;;3.20;;
19036;SDS011;9651;49.138;8.900;2022-10-26T20:54:15;7.73;;;3.57;;
19036;SDS011;9651;49.138;8.900;2022-10-26T20:58:28;10.47;;;3.40;;
19036;SDS011;9651;49.138;8.900;2022-10-26T21:02:37;7.20;;;3.53;;
19036;SDS011;9651;49.138;8.900;2022-10-26T21:06:39;6.40;;;3.43;;
19036;SDS011;9651;49.138;8.900;2022-10-26T21:10:42;5.37;;;3.33;;
19036;SDS011;9651;49.138;8.900;2022-10-26T21:14:44;8.53;;;3.27;;
19036;SDS011;9651;49.138;8.900;2022-10-26T21:18:46;6.87;;;3.70;;
19036;SDS011;9651;49.138;8.900;2022-10-26T21:22:48;7.03;;;3.97;;
19036;SDS011;9651;49.138;8.900;2022-10-26T21:26:53;8.30;;;3.97;;
19036;SDS011;9651;49.138;8.900;2022-10-26T21:30:55;7.67;;;3.43;;
19036;SDS011;9651;49.138;8.900;2022-10-26T21:35:01;6.87;;;3.13;;
19036;SDS011;9651;49.138;8.900;2022-10-26T21:39:04;13.23;;;3.40;;
19036;SDS011;9651;49.138;8.900;2022-10-26T21:43:07;6.87;;;3.17;;
19036;SDS011;9651;49.138;8.900;2022-10-26T21:47:09;10.10;;;3.47;;
19036;SDS011;9651;49.138;8.900;2022-10-26T21:51:12;6.30;;;3.17;;
19036;SDS011;9651;49.138;8.900;2022-10-26T21:55:15;5.60;;;3.63;;
19036;SDS011;9651;49.138;8.900;2022-10-26T21:59:20;5.80;;;2.70;;
19036;SDS011;9651;49.138;8.900;2022-10-26T22:03:22;7.43;;;3.43;;
19036;SDS011;9651;49.138;8.900;2022-10-26T22:07:24;8.40;;;3.63;;
19036;SDS011;9651;49.138;8.900;2022-10-26T22:11:26;9.37;;;3.77;;
19036;SDS011;9651;49.138;8.900;2022-10-26T22:15:29;6.60;;;3.10;;
19036;SDS011;9651;49.138;8.900;2022-10-26T22:19:31;7.30;;;3.87;;
19036;SDS011;9651;49.138;8.900;2022-10-26T22:23:33;3.20;;;2.60;;
19036;SDS011;9651;49.138;8.900;2022-10-26T22:27:35;13.33;;;4.53;;
19036;SDS011;9651;49.138;8.900;2022-10-26T22:31:39;5.80;;;3.60;;
19036;SDS011;9651;49.138;8.900;2022-10-26T22:35:40;6.10;;;3.33;;
19036;SDS011;9651;49.138;8.900;2022-10-26T22:39:43;7.10;;;4.10;;
19036;SDS011;9651;49.138;8.900;2022-10-26T22:43:45;9.57;;;3.40;;
19036;SDS011;9651;49.138;8.900;2022-10-26T22:47:48;8.37;;;3.30;;
19036;SDS011;9651;49.138;8.900;2022-10-26T22:51:50;7.13;;;3.50;;
19036;SDS011;9651;49.138;8.900;2022-10-26T22:55:52;3.80;;;2.87;;
19036;SDS011;9651;49.138;8.900;2022-10-26T22:59:54;8.83;;;4.50;;
19036;SDS011;9651;49.138;8.900;2022-10-26T23:03:57;7.37;;;2.97;;
19036;SDS011;9651;49.138;8.900;2022-10-26T23:07:59;6.03;;;3.63;;
19036;SDS011;9651;49.138;8.900;2022-10-26T23:12:01;10.20;;;3.90;;
19036;SDS011;9651;49.138;8.900;2022-10-26T23:16:03;13.83;;;4.00;;
19036;SDS011;9651;49.138;8.900;2022-10-26T23:20:07;6.37;;;3.30;;
19036;SDS011;9651;49.138;8.900;2022-10-26T23:24:10;13.67;;;3.97;;
19036;SDS011;9651;49.138;8.900;2022-10-26T23:28:12;9.30;;;3.70;;
19036;SDS011;9651;49.138;8.900;2022-10-26T23:32:14;7.20;;;3.97;;
19036;SDS011;9651;49.138;8.900;2022-10-26T23:36:17;6.63;;;3.87;;
19036;SDS011;9651;49.138;8.900;2022-10-26T23:40:19;5.87;;;3.77;;
19036;SDS011;9651;49.138;8.900;2022-10-26T23:44:21;5.53;;;3.33;;
19036;SDS011;9651;49.138;8.900;2022-10-26T23:48:23;10.13;;;4.63;;
19036;SDS011;9651;49.138;8.900;2022-10-26T23:52:26;11.00;;;3.57;;
19036;SDS011;9651;49.138;8.900;2022-10-26T23:56:28;5.43;;;3.37;;
